sensor_id;sensor_type;location;lat;lon;timestamp;P1;durP1;ratioP1;P2;durP2;ratioP2
77938;SDS011;67136;47.546;21.630;2023-12-07T00:01:16;36.37;;;14.77;;
77938;SDS011;67136;47.546;21.630;2023-12-07T00:04:52;33.28;;;14.32;;
77938;SDS011;67136;47.546;21.630;2023-12-07T00:13:25;33.67;;;13.70;;
77938;SDS011;67136;47.546;21.630;2023-12-07T00:17:17;32.42;;;14.68;;
77938;SDS011;67136;47.546;21.630;2023-12-07T00:25:55;35.25;;;14.48;;
77938;SDS011;67136;47.546;21.630;2023-12-07T00:34:23;29.98;;;12.70;;
77938;SDS011;67136;47.546;21.630;2023-12-07T00:38:09;29.63;;;13.65;;
77938;SDS011;67136;47.546;21.630;2023-12-07T00:45:53;35.47;;;13.70;;
77938;SDS011;67136;47.546;21.630;2023-12-07T00:50:02;30.53;;;12.77;;
77938;SDS011;67136;47.546;21.630;2023-12-07T01:07:37;30.58;;;12.95;;
77938;SDS011;67136;47.546;21.630;2023-12-07T01:11:30;28.12;;;11.98;;
77938;SDS011;67136;47.546;21.630;2023-12-07T01:14:55;29.63;;;12.17;;
77938;SDS011;67136;47.546;21.630;2023-12-07T01:26:50;24.87;;;11.07;;
77938;SDS011;67136;47.546;21.630;2023-12-07T01:30:49;25.45;;;10.73;;
77938;SDS011;67136;47.546;21.630;2023-12-07T01:55:11;26.57;;;10.90;;
77938;SDS011;67136;47.546;21.630;2023-12-07T02:07:58;23.48;;;9.63;;
77938;SDS011;67136;47.546;21.630;2023-12-07T02:12:00;27.95;;;10.05;;
77938;SDS011;67136;47.546;21.630;2023-12-07T02:17:03;20.47;;;9.53;;
77938;SDS011;67136;47.546;21.630;2023-12-07T02:21:47;24.15;;;10.13;;
77938;SDS011;67136;47.546;21.630;2023-12-07T02:30:16;20.17;;;9.10;;
77938;SDS011;67136;47.546;21.630;2023-12-07T02:33:58;21.50;;;8.43;;
77938;SDS011;67136;47.546;21.630;2023-12-07T02:46:08;22.40;;;9.45;;
77938;SDS011;67136;47.546;21.630;2023-12-07T02:50:08;21.95;;;9.32;;
77938;SDS011;67136;47.546;21.630;2023-12-07T02:58:51;22.52;;;8.85;;
77938;SDS011;67136;47.546;21.630;2023-12-07T03:07:32;20.83;;;8.93;;
77938;SDS011;67136;47.546;21.630;2023-12-07T03:24:45;22.20;;;9.45;;
77938;SDS011;67136;47.546;21.630;2023-12-07T03:29:05;23.30;;;10.10;;
77938;SDS011;67136;47.546;21.630;2023-12-07T03:37:56;25.50;;;8.73;;
77938;SDS011;67136;47.546;21.630;2023-12-07T03:51:19;18.80;;;8.33;;
77938;SDS011;67136;47.546;21.630;2023-12-07T03:59:58;16.77;;;7.95;;
77938;SDS011;67136;47.546;21.630;2023-12-07T04:07:43;23.17;;;7.18;;
77938;SDS011;67136;47.546;21.630;2023-12-07T04:15:43;14.05;;;6.45;;
77938;SDS011;67136;47.546;21.630;2023-12-07T04:20:14;15.70;;;6.90;;
77938;SDS011;67136;47.546;21.630;2023-12-07T04:36:49;18.10;;;8.50;;
77938;SDS011;67136;47.546;21.630;2023-12-07T05:09:30;18.30;;;7.77;;
77938;SDS011;67136;47.546;21.630;2023-12-07T05:13:03;15.23;;;8.00;;
77938;SDS011;67136;47.546;21.630;2023-12-07T05:24:15;19.63;;;9.10;;
77938;SDS011;67136;47.546;21.630;2023-12-07T05:46:08;21.35;;;9.93;;
77938;SDS011;67136;47.546;21.630;2023-12-07T05:50:06;20.90;;;9.85;;
77938;SDS011;67136;47.546;21.630;2023-12-07T05:54:26;18.63;;;9.23;;
77938;SDS011;67136;47.546;21.630;2023-12-07T05:58:42;20.95;;;8.63;;
77938;SDS011;67136;47.546;21.630;2023-12-07T06:02:36;21.02;;;9.48;;
77938;SDS011;67136;47.546;21.630;2023-12-07T06:14:31;23.58;;;10.40;;
77938;SDS011;67136;47.546;21.630;2023-12-07T06:22:04;26.77;;;12.40;;
77938;SDS011;67136;47.546;21.630;2023-12-07T06:25:44;29.25;;;12.10;;
77938;SDS011;67136;47.546;21.630;2023-12-07T06:33:34;26.30;;;10.52;;
77938;SDS011;67136;47.546;21.630;2023-12-07T06:37:28;29.67;;;12.75;;
77938;SDS011;67136;47.546;21.630;2023-12-07T06:41:35;33.85;;;13.77;;
77938;SDS011;67136;47.546;21.630;2023-12-07T06:45:26;32.10;;;12.37;;
77938;SDS011;67136;47.546;21.630;2023-12-07T06:49:10;28.10;;;12.07;;
77938;SDS011;67136;47.546;21.630;2023-12-07T06:52:45;29.77;;;12.57;;
77938;SDS011;67136;47.546;21.630;2023-12-07T06:55:48;30.05;;;13.43;;
77938;SDS011;67136;47.546;21.630;2023-12-07T06:58:50;31.57;;;13.13;;
77938;SDS011;67136;47.546;21.630;2023-12-07T07:01:53;33.63;;;13.23;;
77938;SDS011;67136;47.546;21.630;2023-12-07T07:04:58;24.08;;;10.88;;
77938;SDS011;67136;47.546;21.630;2023-12-07T07:08:01;34.35;;;16.35;;
77938;SDS011;67136;47.546;21.630;2023-12-07T07:11:09;34.47;;;13.40;;
77938;SDS011;67136;47.546;21.630;2023-12-07T07:14:14;30.10;;;12.88;;
77938;SDS011;67136;47.546;21.630;2023-12-07T07:17:18;35.03;;;14.68;;
77938;SDS011;67136;47.546;21.630;2023-12-07T07:20:20;34.05;;;13.25;;
77938;SDS011;67136;47.546;21.630;2023-12-07T07:23:23;35.35;;;13.95;;
77938;SDS011;67136;47.546;21.630;2023-12-07T07:26:25;39.87;;;17.43;;
77938;SDS011;67136;47.546;21.630;2023-12-07T07:29:28;29.83;;;13.48;;
77938;SDS011;67136;47.546;21.630;2023-12-07T07:32:31;32.42;;;13.15;;
77938;SDS011;67136;47.546;21.630;2023-12-07T07:35:34;35.38;;;15.13;;
77938;SDS011;67136;47.546;21.630;2023-12-07T07:38:37;34.38;;;13.43;;
77938;SDS011;67136;47.546;21.630;2023-12-07T07:41:40;36.53;;;14.57;;
77938;SDS011;67136;47.546;21.630;2023-12-07T07:44:43;35.58;;;14.77;;
77938;SDS011;67136;47.546;21.630;2023-12-07T07:47:46;30.92;;;12.77;;
77938;SDS011;67136;47.546;21.630;2023-12-07T07:50:49;29.58;;;13.07;;
77938;SDS011;67136;47.546;21.630;2023-12-07T07:53:51;30.77;;;12.85;;
77938;SDS011;67136;47.546;21.630;2023-12-07T07:56:55;27.50;;;12.37;;
77938;SDS011;67136;47.546;21.630;2023-12-07T08:00:01;33.38;;;13.48;;
77938;SDS011;67136;47.546;21.630;2023-12-07T08:03:05;33.83;;;13.18;;
77938;SDS011;67136;47.546;21.630;2023-12-07T08:06:11;31.95;;;14.00;;
77938;SDS011;67136;47.546;21.630;2023-12-07T08:09:15;43.13;;;13.07;;
77938;SDS011;67136;47.546;21.630;2023-12-07T08:12:18;31.80;;;12.90;;
77938;SDS011;67136;47.546;21.630;2023-12-07T08:15:24;33.00;;;12.93;;
77938;SDS011;67136;47.546;21.630;2023-12-07T08:18:27;32.60;;;13.73;;
77938;SDS011;67136;47.546;21.630;2023-12-07T08:21:29;32.63;;;14.25;;
77938;SDS011;67136;47.546;21.630;2023-12-07T08:24:33;29.00;;;12.43;;
77938;SDS011;67136;47.546;21.630;2023-12-07T08:27:39;32.22;;;13.98;;
77938;SDS011;67136;47.546;21.630;2023-12-07T08:31:18;31.45;;;13.75;;
77938;SDS011;67136;47.546;21.630;2023-12-07T08:34:38;34.65;;;13.35;;
77938;SDS011;67136;47.546;21.630;2023-12-07T08:38:10;34.17;;;14.37;;
77938;SDS011;67136;47.546;21.630;2023-12-07T08:41:47;32.65;;;13.88;;
77938;SDS011;67136;47.546;21.630;2023-12-07T08:45:18;37.45;;;14.13;;
77938;SDS011;67136;47.546;21.630;2023-12-07T08:48:45;35.15;;;15.18;;
77938;SDS011;67136;47.546;21.630;2023-12-07T08:51:56;35.60;;;14.50;;
77938;SDS011;67136;47.546;21.630;2023-12-07T08:55:26;40.40;;;17.53;;
77938;SDS011;67136;47.546;21.630;2023-12-07T10:26:29;33.25;;;13.00;;
77938;SDS011;67136;47.546;21.630;2023-12-07T10:29:37;34.85;;;14.43;;
77938;SDS011;67136;47.546;21.630;2023-12-07T10:32:55;34.13;;;14.03;;
77938;SDS011;67136;47.546;21.630;2023-12-07T10:35:58;36.70;;;14.27;;
77938;SDS011;67136;47.546;21.630;2023-12-07T10:39:02;36.22;;;14.45;;
77938;SDS011;67136;47.546;21.630;2023-12-07T10:42:16;33.58;;;15.13;;
77938;SDS011;67136;47.546;21.630;2023-12-07T10:45:26;28.92;;;13.05;;
77938;SDS011;67136;47.546;21.630;2023-12-07T10:48:32;29.97;;;13.33;;
77938;SDS011;67136;47.546;21.630;2023-12-07T10:51:41;35.28;;;14.52;;
77938;SDS011;67136;47.546;21.630;2023-12-07T10:54:53;31.05;;;12.90;;
77938;SDS011;67136;47.546;21.630;2023-12-07T10:58:05;36.20;;;13.07;;
77938;SDS011;67136;47.546;21.630;2023-12-07T11:01:10;29.87;;;11.93;;
77938;SDS011;67136;47.546;21.630;2023-12-07T11:04:14;30.47;;;11.07;;
77938;SDS011;67136;47.546;21.630;2023-12-07T11:07:18;26.87;;;11.93;;
77938;SDS011;67136;47.546;21.630;2023-12-07T11:14:32;34.25;;;14.15;;
77938;SDS011;67136;47.546;21.630;2023-12-07T11:21:56;30.10;;;11.63;;
77938;SDS011;67136;47.546;21.630;2023-12-07T11:25:00;33.78;;;12.02;;
77938;SDS011;67136;47.546;21.630;2023-12-07T11:28:09;32.25;;;12.25;;
77938;SDS011;67136;47.546;21.630;2023-12-07T11:31:13;32.30;;;12.27;;
77938;SDS011;67136;47.546;21.630;2023-12-07T11:34:34;31.40;;;12.37;;
77938;SDS011;67136;47.546;21.630;2023-12-07T11:41:09;36.35;;;12.80;;
77938;SDS011;67136;47.546;21.630;2023-12-07T11:44:12;32.92;;;13.80;;
77938;SDS011;67136;47.546;21.630;2023-12-07T11:47:15;29.48;;;11.68;;
77938;SDS011;67136;47.546;21.630;2023-12-07T11:50:20;33.28;;;13.32;;
77938;SDS011;67136;47.546;21.630;2023-12-07T11:53:22;35.50;;;13.57;;
77938;SDS011;67136;47.546;21.630;2023-12-07T11:56:27;38.42;;;15.85;;
77938;SDS011;67136;47.546;21.630;2023-12-07T11:59:30;44.85;;;15.98;;
77938;SDS011;67136;47.546;21.630;2023-12-07T12:02:35;41.53;;;17.12;;
77938;SDS011;67136;47.546;21.630;2023-12-07T12:05:40;38.28;;;14.45;;
77938;SDS011;67136;47.546;21.630;2023-12-07T12:08:45;32.33;;;13.83;;
77938;SDS011;67136;47.546;21.630;2023-12-07T12:11:49;32.60;;;14.98;;
77938;SDS011;67136;47.546;21.630;2023-12-07T12:14:52;36.33;;;14.55;;
77938;SDS011;67136;47.546;21.630;2023-12-07T12:17:58;34.85;;;14.73;;
77938;SDS011;67136;47.546;21.630;2023-12-07T12:21:01;34.70;;;14.30;;
77938;SDS011;67136;47.546;21.630;2023-12-07T12:24:07;41.23;;;14.17;;
77938;SDS011;67136;47.546;21.630;2023-12-07T12:27:11;36.37;;;15.30;;
77938;SDS011;67136;47.546;21.630;2023-12-07T12:30:13;44.60;;;18.33;;
77938;SDS011;67136;47.546;21.630;2023-12-07T12:33:17;36.28;;;16.27;;
77938;SDS011;67136;47.546;21.630;2023-12-07T12:36:20;40.25;;;15.32;;
77938;SDS011;67136;47.546;21.630;2023-12-07T12:39:29;39.57;;;15.93;;
77938;SDS011;67136;47.546;21.630;2023-12-07T12:42:50;33.58;;;14.13;;
77938;SDS011;67136;47.546;21.630;2023-12-07T12:45:58;31.25;;;14.25;;
77938;SDS011;67136;47.546;21.630;2023-12-07T12:49:07;35.25;;;16.25;;
77938;SDS011;67136;47.546;21.630;2023-12-07T12:52:10;33.58;;;14.15;;
77938;SDS011;67136;47.546;21.630;2023-12-07T12:55:14;29.23;;;13.23;;
77938;SDS011;67136;47.546;21.630;2023-12-07T12:58:17;35.33;;;13.60;;
77938;SDS011;67136;47.546;21.630;2023-12-07T13:01:21;31.70;;;13.48;;
77938;SDS011;67136;47.546;21.630;2023-12-07T13:04:24;29.17;;;12.18;;
77938;SDS011;67136;47.546;21.630;2023-12-07T13:07:28;28.85;;;13.35;;
77938;SDS011;67136;47.546;21.630;2023-12-07T13:10:31;33.17;;;13.23;;
77938;SDS011;67136;47.546;21.630;2023-12-07T13:13:34;30.07;;;12.73;;
77938;SDS011;67136;47.546;21.630;2023-12-07T13:16:37;29.42;;;12.52;;
77938;SDS011;67136;47.546;21.630;2023-12-07T13:19:40;29.85;;;13.75;;
77938;SDS011;67136;47.546;21.630;2023-12-07T13:22:43;28.08;;;12.82;;
77938;SDS011;67136;47.546;21.630;2023-12-07T13:25:46;32.87;;;14.00;;
77938;SDS011;67136;47.546;21.630;2023-12-07T13:28:49;31.00;;;13.45;;
77938;SDS011;67136;47.546;21.630;2023-12-07T13:31:52;30.67;;;12.90;;
77938;SDS011;67136;47.546;21.630;2023-12-07T13:34:54;32.78;;;12.88;;
77938;SDS011;67136;47.546;21.630;2023-12-07T13:37:57;29.90;;;12.55;;
77938;SDS011;67136;47.546;21.630;2023-12-07T13:41:00;31.30;;;13.27;;
77938;SDS011;67136;47.546;21.630;2023-12-07T13:44:02;31.73;;;13.05;;
77938;SDS011;67136;47.546;21.630;2023-12-07T13:47:06;31.23;;;13.82;;
77938;SDS011;67136;47.546;21.630;2023-12-07T13:50:09;31.83;;;13.90;;
77938;SDS011;67136;47.546;21.630;2023-12-07T13:53:12;33.63;;;13.05;;
77938;SDS011;67136;47.546;21.630;2023-12-07T13:56:15;31.77;;;14.03;;
77938;SDS011;67136;47.546;21.630;2023-12-07T13:59:18;30.23;;;14.30;;
77938;SDS011;67136;47.546;21.630;2023-12-07T14:02:21;30.17;;;13.73;;
77938;SDS011;67136;47.546;21.630;2023-12-07T14:05:24;35.47;;;14.85;;
77938;SDS011;67136;47.546;21.630;2023-12-07T14:08:27;33.40;;;14.30;;
77938;SDS011;67136;47.546;21.630;2023-12-07T14:11:33;30.40;;;14.00;;
77938;SDS011;67136;47.546;21.630;2023-12-07T14:14:35;35.30;;;14.60;;
77938;SDS011;67136;47.546;21.630;2023-12-07T14:17:38;32.75;;;14.77;;
77938;SDS011;67136;47.546;21.630;2023-12-07T14:20:51;33.58;;;15.25;;
77938;SDS011;67136;47.546;21.630;2023-12-07T14:24:14;33.17;;;13.43;;
77938;SDS011;67136;47.546;21.630;2023-12-07T14:27:16;36.13;;;15.23;;
77938;SDS011;67136;47.546;21.630;2023-12-07T14:30:19;31.95;;;14.65;;
77938;SDS011;67136;47.546;21.630;2023-12-07T14:33:23;38.22;;;15.10;;
77938;SDS011;67136;47.546;21.630;2023-12-07T14:36:26;36.75;;;15.30;;
77938;SDS011;67136;47.546;21.630;2023-12-07T14:39:28;33.75;;;14.75;;
77938;SDS011;67136;47.546;21.630;2023-12-07T14:42:31;42.13;;;15.57;;
77938;SDS011;67136;47.546;21.630;2023-12-07T14:45:34;35.67;;;15.43;;
77938;SDS011;67136;47.546;21.630;2023-12-07T14:48:37;35.60;;;15.57;;
77938;SDS011;67136;47.546;21.630;2023-12-07T14:51:40;37.05;;;15.32;;
77938;SDS011;67136;47.546;21.630;2023-12-07T14:54:43;37.38;;;15.35;;
77938;SDS011;67136;47.546;21.630;2023-12-07T14:57:45;42.80;;;15.33;;
77938;SDS011;67136;47.546;21.630;2023-12-07T15:00:51;36.65;;;16.00;;
77938;SDS011;67136;47.546;21.630;2023-12-07T15:03:54;37.28;;;14.38;;
77938;SDS011;67136;47.546;21.630;2023-12-07T15:06:58;35.25;;;16.23;;
77938;SDS011;67136;47.546;21.630;2023-12-07T15:10:00;36.15;;;15.80;;
77938;SDS011;67136;47.546;21.630;2023-12-07T15:13:03;33.30;;;14.67;;
77938;SDS011;67136;47.546;21.630;2023-12-07T15:16:06;39.55;;;16.77;;
77938;SDS011;67136;47.546;21.630;2023-12-07T15:19:09;39.83;;;16.30;;
77938;SDS011;67136;47.546;21.630;2023-12-07T15:22:12;35.15;;;14.63;;
77938;SDS011;67136;47.546;21.630;2023-12-07T15:25:14;34.35;;;14.48;;
77938;SDS011;67136;47.546;21.630;2023-12-07T15:28:17;37.57;;;15.63;;
77938;SDS011;67136;47.546;21.630;2023-12-07T15:31:20;33.17;;;14.95;;
77938;SDS011;67136;47.546;21.630;2023-12-07T15:34:22;36.28;;;15.85;;
77938;SDS011;67136;47.546;21.630;2023-12-07T15:37:39;36.65;;;14.93;;
77938;SDS011;67136;47.546;21.630;2023-12-07T15:40:42;38.22;;;16.67;;
77938;SDS011;67136;47.546;21.630;2023-12-07T15:43:45;36.00;;;15.83;;
77938;SDS011;67136;47.546;21.630;2023-12-07T15:46:48;32.72;;;13.70;;
77938;SDS011;67136;47.546;21.630;2023-12-07T15:49:51;37.15;;;15.40;;
77938;SDS011;67136;47.546;21.630;2023-12-07T15:52:53;36.00;;;13.85;;
77938;SDS011;67136;47.546;21.630;2023-12-07T15:55:56;29.67;;;13.25;;
77938;SDS011;67136;47.546;21.630;2023-12-07T15:58:58;33.03;;;13.70;;
77938;SDS011;67136;47.546;21.630;2023-12-07T16:02:01;37.35;;;15.25;;
77938;SDS011;67136;47.546;21.630;2023-12-07T16:05:04;32.90;;;14.87;;
77938;SDS011;67136;47.546;21.630;2023-12-07T16:08:10;37.28;;;13.23;;
77938;SDS011;67136;47.546;21.630;2023-12-07T16:11:13;38.58;;;14.45;;
77938;SDS011;67136;47.546;21.630;2023-12-07T16:14:15;32.60;;;13.70;;
77938;SDS011;67136;47.546;21.630;2023-12-07T16:17:28;35.60;;;13.35;;
77938;SDS011;67136;47.546;21.630;2023-12-07T16:20:31;38.40;;;15.05;;
77938;SDS011;67136;47.546;21.630;2023-12-07T16:23:34;38.85;;;15.10;;
77938;SDS011;67136;47.546;21.630;2023-12-07T16:26:37;37.42;;;14.38;;
77938;SDS011;67136;47.546;21.630;2023-12-07T16:29:40;38.23;;;15.00;;
77938;SDS011;67136;47.546;21.630;2023-12-07T16:32:42;38.97;;;15.85;;
77938;SDS011;67136;47.546;21.630;2023-12-07T16:35:48;40.78;;;15.68;;
77938;SDS011;67136;47.546;21.630;2023-12-07T16:38:51;37.25;;;15.73;;
77938;SDS011;67136;47.546;21.630;2023-12-07T16:41:56;39.60;;;15.40;;
77938;SDS011;67136;47.546;21.630;2023-12-07T16:45:04;34.20;;;14.70;;
77938;SDS011;67136;47.546;21.630;2023-12-07T16:48:08;32.78;;;14.65;;
77938;SDS011;67136;47.546;21.630;2023-12-07T16:51:11;37.95;;;16.15;;
77938;SDS011;67136;47.546;21.630;2023-12-07T16:54:14;35.78;;;14.05;;
77938;SDS011;67136;47.546;21.630;2023-12-07T16:57:17;39.40;;;16.40;;
77938;SDS011;67136;47.546;21.630;2023-12-07T17:00:20;36.07;;;15.10;;
77938;SDS011;67136;47.546;21.630;2023-12-07T17:03:23;34.95;;;14.18;;
77938;SDS011;67136;47.546;21.630;2023-12-07T17:06:28;39.30;;;15.75;;
77938;SDS011;67136;47.546;21.630;2023-12-07T17:09:34;38.85;;;13.85;;
77938;SDS011;67136;47.546;21.630;2023-12-07T17:12:37;40.20;;;15.52;;
77938;SDS011;67136;47.546;21.630;2023-12-07T17:15:40;38.90;;;14.63;;
77938;SDS011;67136;47.546;21.630;2023-12-07T17:18:44;35.58;;;13.75;;
77938;SDS011;67136;47.546;21.630;2023-12-07T17:21:46;31.67;;;13.82;;
77938;SDS011;67136;47.546;21.630;2023-12-07T17:24:50;34.33;;;13.70;;
77938;SDS011;67136;47.546;21.630;2023-12-07T17:27:53;40.60;;;15.18;;
77938;SDS011;67136;47.546;21.630;2023-12-07T17:30:59;35.45;;;13.45;;
77938;SDS011;67136;47.546;21.630;2023-12-07T17:34:01;39.35;;;15.50;;
77938;SDS011;67136;47.546;21.630;2023-12-07T17:37:04;40.25;;;14.77;;
77938;SDS011;67136;47.546;21.630;2023-12-07T17:40:07;36.05;;;15.07;;
77938;SDS011;67136;47.546;21.630;2023-12-07T17:43:11;35.30;;;14.97;;
77938;SDS011;67136;47.546;21.630;2023-12-07T17:46:13;47.45;;;16.40;;
77938;SDS011;67136;47.546;21.630;2023-12-07T17:49:16;40.08;;;14.90;;
77938;SDS011;67136;47.546;21.630;2023-12-07T17:52:18;37.28;;;14.80;;
77938;SDS011;67136;47.546;21.630;2023-12-07T17:55:21;32.90;;;14.30;;
77938;SDS011;67136;47.546;21.630;2023-12-07T17:58:24;35.93;;;13.70;;
77938;SDS011;67136;47.546;21.630;2023-12-07T18:01:26;34.80;;;14.33;;
77938;SDS011;67136;47.546;21.630;2023-12-07T18:04:32;36.05;;;14.07;;
77938;SDS011;67136;47.546;21.630;2023-12-07T18:07:35;35.83;;;13.68;;
77938;SDS011;67136;47.546;21.630;2023-12-07T18:10:38;34.25;;;13.85;;
77938;SDS011;67136;47.546;21.630;2023-12-07T18:13:41;32.90;;;13.97;;
77938;SDS011;67136;47.546;21.630;2023-12-07T18:16:44;34.30;;;13.25;;
77938;SDS011;67136;47.546;21.630;2023-12-07T18:19:47;30.27;;;12.27;;
77938;SDS011;67136;47.546;21.630;2023-12-07T18:22:50;32.30;;;12.90;;
77938;SDS011;67136;47.546;21.630;2023-12-07T18:25:52;32.25;;;12.43;;
77938;SDS011;67136;47.546;21.630;2023-12-07T18:28:55;30.90;;;12.70;;
77938;SDS011;67136;47.546;21.630;2023-12-07T18:31:58;31.08;;;11.40;;
77938;SDS011;67136;47.546;21.630;2023-12-07T18:35:01;33.75;;;12.82;;
77938;SDS011;67136;47.546;21.630;2023-12-07T18:38:03;32.30;;;12.75;;
77938;SDS011;67136;47.546;21.630;2023-12-07T18:41:07;28.60;;;11.70;;
77938;SDS011;67136;47.546;21.630;2023-12-07T18:44:09;28.40;;;11.80;;
77938;SDS011;67136;47.546;21.630;2023-12-07T18:47:12;29.50;;;12.67;;
77938;SDS011;67136;47.546;21.630;2023-12-07T18:50:14;30.75;;;12.68;;
77938;SDS011;67136;47.546;21.630;2023-12-07T18:53:17;37.10;;;12.30;;
77938;SDS011;67136;47.546;21.630;2023-12-07T18:56:19;28.45;;;11.70;;
77938;SDS011;67136;47.546;21.630;2023-12-07T18:59:22;36.50;;;14.07;;
77938;SDS011;67136;47.546;21.630;2023-12-07T19:02:24;36.10;;;13.17;;
77938;SDS011;67136;47.546;21.630;2023-12-07T19:05:27;37.20;;;13.57;;
77938;SDS011;67136;47.546;21.630;2023-12-07T19:08:30;35.03;;;13.18;;
77938;SDS011;67136;47.546;21.630;2023-12-07T19:11:33;40.33;;;14.15;;
77938;SDS011;67136;47.546;21.630;2023-12-07T19:14:35;35.77;;;14.13;;
77938;SDS011;67136;47.546;21.630;2023-12-07T19:17:38;39.83;;;13.90;;
77938;SDS011;67136;47.546;21.630;2023-12-07T19:20:41;41.88;;;16.60;;
77938;SDS011;67136;47.546;21.630;2023-12-07T19:23:44;43.92;;;16.98;;
77938;SDS011;67136;47.546;21.630;2023-12-07T19:26:47;38.45;;;16.90;;
77938;SDS011;67136;47.546;21.630;2023-12-07T19:29:50;40.17;;;16.13;;
77938;SDS011;67136;47.546;21.630;2023-12-07T19:32:53;41.13;;;15.32;;
77938;SDS011;67136;47.546;21.630;2023-12-07T19:36:02;42.22;;;16.92;;
77938;SDS011;67136;47.546;21.630;2023-12-07T19:39:05;44.65;;;16.67;;
77938;SDS011;67136;47.546;21.630;2023-12-07T19:42:08;43.42;;;16.67;;
77938;SDS011;67136;47.546;21.630;2023-12-07T19:45:10;44.37;;;17.17;;
77938;SDS011;67136;47.546;21.630;2023-12-07T19:48:13;41.17;;;15.77;;
77938;SDS011;67136;47.546;21.630;2023-12-07T19:51:17;46.05;;;17.25;;
77938;SDS011;67136;47.546;21.630;2023-12-07T19:54:21;42.78;;;16.05;;
77938;SDS011;67136;47.546;21.630;2023-12-07T19:57:30;45.17;;;16.33;;
77938;SDS011;67136;47.546;21.630;2023-12-07T20:00:32;43.83;;;16.57;;
77938;SDS011;67136;47.546;21.630;2023-12-07T20:03:35;43.83;;;17.00;;
77938;SDS011;67136;47.546;21.630;2023-12-07T20:06:38;42.95;;;15.30;;
77938;SDS011;67136;47.546;21.630;2023-12-07T20:09:41;39.90;;;15.20;;
77938;SDS011;67136;47.546;21.630;2023-12-07T20:12:43;42.53;;;16.05;;
77938;SDS011;67136;47.546;21.630;2023-12-07T20:15:46;38.43;;;14.73;;
77938;SDS011;67136;47.546;21.630;2023-12-07T20:18:49;41.60;;;15.65;;
77938;SDS011;67136;47.546;21.630;2023-12-07T20:21:52;38.75;;;13.70;;
77938;SDS011;67136;47.546;21.630;2023-12-07T20:24:55;39.85;;;14.35;;
77938;SDS011;67136;47.546;21.630;2023-12-07T20:27:58;37.85;;;13.80;;
77938;SDS011;67136;47.546;21.630;2023-12-07T20:31:00;37.83;;;13.97;;
77938;SDS011;67136;47.546;21.630;2023-12-07T20:34:03;41.70;;;13.95;;
77938;SDS011;67136;47.546;21.630;2023-12-07T20:37:07;37.50;;;13.80;;
77938;SDS011;67136;47.546;21.630;2023-12-07T20:40:09;37.38;;;13.82;;
77938;SDS011;67136;47.546;21.630;2023-12-07T20:43:12;30.12;;;12.93;;
77938;SDS011;67136;47.546;21.630;2023-12-07T20:46:15;39.47;;;14.20;;
77938;SDS011;67136;47.546;21.630;2023-12-07T20:49:18;35.97;;;12.75;;
77938;SDS011;67136;47.546;21.630;2023-12-07T20:52:21;39.28;;;13.52;;
77938;SDS011;67136;47.546;21.630;2023-12-07T20:55:25;37.05;;;13.80;;
77938;SDS011;67136;47.546;21.630;2023-12-07T20:58:30;35.10;;;13.38;;
77938;SDS011;67136;47.546;21.630;2023-12-07T21:01:34;33.20;;;12.03;;
77938;SDS011;67136;47.546;21.630;2023-12-07T21:04:37;31.25;;;12.35;;
77938;SDS011;67136;47.546;21.630;2023-12-07T21:07:40;35.67;;;12.93;;
77938;SDS011;67136;47.546;21.630;2023-12-07T21:10:43;35.70;;;12.32;;
77938;SDS011;67136;47.546;21.630;2023-12-07T21:13:46;33.35;;;12.77;;
77938;SDS011;67136;47.546;21.630;2023-12-07T21:16:49;33.17;;;13.43;;
77938;SDS011;67136;47.546;21.630;2023-12-07T21:19:54;40.58;;;14.50;;
77938;SDS011;67136;47.546;21.630;2023-12-07T21:22:56;37.20;;;14.07;;
77938;SDS011;67136;47.546;21.630;2023-12-07T21:25:59;40.15;;;14.25;;
77938;SDS011;67136;47.546;21.630;2023-12-07T21:29:02;36.75;;;13.73;;
77938;SDS011;67136;47.546;21.630;2023-12-07T21:32:05;37.53;;;16.17;;
77938;SDS011;67136;47.546;21.630;2023-12-07T21:35:08;42.08;;;15.02;;
77938;SDS011;67136;47.546;21.630;2023-12-07T21:38:11;37.40;;;14.18;;
77938;SDS011;67136;47.546;21.630;2023-12-07T21:41:14;36.78;;;14.93;;
77938;SDS011;67136;47.546;21.630;2023-12-07T21:44:16;37.75;;;14.77;;
77938;SDS011;67136;47.546;21.630;2023-12-07T21:47:19;40.30;;;13.83;;
77938;SDS011;67136;47.546;21.630;2023-12-07T21:50:22;34.28;;;14.10;;
77938;SDS011;67136;47.546;21.630;2023-12-07T21:53:25;37.38;;;13.95;;
77938;SDS011;67136;47.546;21.630;2023-12-07T21:56:28;37.67;;;14.13;;
77938;SDS011;67136;47.546;21.630;2023-12-07T21:59:30;36.13;;;14.20;;
77938;SDS011;67136;47.546;21.630;2023-12-07T22:02:33;34.97;;;14.10;;
77938;SDS011;67136;47.546;21.630;2023-12-07T22:05:36;35.92;;;13.15;;
77938;SDS011;67136;47.546;21.630;2023-12-07T22:08:39;39.20;;;14.65;;
77938;SDS011;67136;47.546;21.630;2023-12-07T22:11:44;42.47;;;14.82;;
77938;SDS011;67136;47.546;21.630;2023-12-07T22:14:47;36.22;;;14.05;;
77938;SDS011;67136;47.546;21.630;2023-12-07T22:17:51;42.07;;;15.07;;
77938;SDS011;67136;47.546;21.630;2023-12-07T22:20:53;38.87;;;14.90;;
77938;SDS011;67136;47.546;21.630;2023-12-07T22:23:56;35.38;;;13.62;;
77938;SDS011;67136;47.546;21.630;2023-12-07T22:26:59;33.30;;;13.62;;
77938;SDS011;67136;47.546;21.630;2023-12-07T22:30:01;36.13;;;14.20;;
77938;SDS011;67136;47.546;21.630;2023-12-07T22:33:04;38.80;;;13.43;;
77938;SDS011;67136;47.546;21.630;2023-12-07T22:36:07;38.60;;;14.35;;
77938;SDS011;67136;47.546;21.630;2023-12-07T22:39:10;34.67;;;14.75;;
77938;SDS011;67136;47.546;21.630;2023-12-07T22:42:12;37.72;;;14.90;;
77938;SDS011;67136;47.546;21.630;2023-12-07T22:45:15;35.10;;;14.73;;
77938;SDS011;67136;47.546;21.630;2023-12-07T22:48:18;36.47;;;15.47;;
77938;SDS011;67136;47.546;21.630;2023-12-07T22:51:21;34.08;;;14.98;;
77938;SDS011;67136;47.546;21.630;2023-12-07T22:54:24;38.22;;;16.08;;
77938;SDS011;67136;47.546;21.630;2023-12-07T22:57:27;34.78;;;14.70;;
77938;SDS011;67136;47.546;21.630;2023-12-07T23:00:30;39.88;;;15.18;;
77938;SDS011;67136;47.546;21.630;2023-12-07T23:03:34;38.10;;;16.33;;
77938;SDS011;67136;47.546;21.630;2023-12-07T23:06:38;40.70;;;15.07;;
77938;SDS011;67136;47.546;21.630;2023-12-07T23:09:40;39.83;;;15.90;;
77938;SDS011;67136;47.546;21.630;2023-12-07T23:12:43;35.95;;;14.15;;
77938;SDS011;67136;47.546;21.630;2023-12-07T23:15:46;44.80;;;15.65;;
77938;SDS011;67136;47.546;21.630;2023-12-07T23:18:49;42.60;;;16.93;;
77938;SDS011;67136;47.546;21.630;2023-12-07T23:21:52;39.15;;;15.05;;
77938;SDS011;67136;47.546;21.630;2023-12-07T23:24:54;40.22;;;14.80;;
77938;SDS011;67136;47.546;21.630;2023-12-07T23:27:57;38.28;;;15.63;;
77938;SDS011;67136;47.546;21.630;2023-12-07T23:31:00;42.10;;;15.98;;
77938;SDS011;67136;47.546;21.630;2023-12-07T23:34:02;43.67;;;17.77;;
77938;SDS011;67136;47.546;21.630;2023-12-07T23:37:05;41.15;;;15.48;;
77938;SDS011;67136;47.546;21.630;2023-12-07T23:40:08;35.45;;;15.48;;